Time;durP1;ratioP1;P1;durP2;ratioP2;P2;SDS_P1;SDS_P2;PMS_P1;PMS_P2;Temp;Humidity;BMP_temperature;BMP_pressure;BME280_temperature;BME280_humidity;BME280_pressure;Samples;Min_cycle;Max_cycle;Signal;HPM_P1;HPM_P2
2021/01/12 00:00:42;;;;;;;14.10;10.63;;;-1.10;99.90;;;;;;5053854;28;20646;-82
2021/01/12 00:03:08;;;;;;;14.77;11.80;;;-1.50;99.90;;;;;;5052849;28;20218;-82
2021/01/12 00:05:34;;;;;;;9.17;6.17;;;-1.70;99.90;;;;;;5054031;28;20433;-82
2021/01/12 00:08:00;;;;;;;16.20;10.77;;;-1.00;99.90;;;;;;5052957;28;20505;-83
2021/01/12 00:10:25;;;;;;;15.27;11.47;;;-1.70;99.90;;;;;;5053084;28;20180;-82
2021/01/12 00:12:52;;;;;;;15.17;9.67;;;-1.10;99.90;;;;;;5054072;28;20179;-82
2021/01/12 00:15:18;;;;;;;15.00;11.07;;;-1.10;99.90;;;;;;5052825;28;20223;-83
2021/01/12 00:17:43;;;;;;;17.53;11.13;;;-1.10;99.90;;;;;;5052909;28;20505;-83
2021/01/12 00:20:10;;;;;;;14.40;12.70;;;-1.60;99.90;;;;;;5052628;28;20176;-84
2021/01/12 00:22:36;;;;;;;15.77;12.43;;;-1.00;99.90;;;;;;5052277;28;20231;-83
2021/01/12 00:25:04;;;;;;;15.50;10.47;;;-1.10;99.90;;;;;;5052680;28;20832;-83
2021/01/12 00:27:30;;;;;;;19.10;12.27;;;-1.10;99.90;;;;;;5052272;28;20418;-84
2021/01/12 00:29:55;;;;;;;19.53;12.07;;;-1.30;99.90;;;;;;5052324;28;20435;-82
2021/01/12 00:32:24;;;;;;;17.07;13.10;;;-1.60;99.90;;;;;;5053502;28;20257;-83
2021/01/12 00:34:51;;;;;;;13.50;10.17;;;-1.60;99.90;;;;;;5052600;28;20594;-83
2021/01/12 00:37:18;;;;;;;16.30;11.40;;;-1.70;99.90;;;;;;5052184;28;20426;-83
2021/01/12 00:39:43;;;;;;;19.90;12.77;;;-1.20;99.90;;;;;;5053377;28;20418;-82
2021/01/12 00:42:09;;;;;;;19.37;13.07;;;-1.50;99.90;;;;;;5052232;28;20517;-83
2021/01/12 00:44:35;;;;;;;19.33;13.63;;;-1.70;99.90;;;;;;5052182;28;20178;-83
2021/01/12 00:47:00;;;;;;;16.50;13.00;;;-1.60;99.90;;;;;;5051886;28;20229;-83
2021/01/12 00:49:26;;;;;;;17.47;11.27;;;-1.40;99.90;;;;;;5051833;28;20175;-83
2021/01/12 00:51:53;;;;;;;16.70;12.90;;;-1.20;99.90;;;;;;5052122;28;20199;-83
2021/01/12 00:54:21;;;;;;;20.63;12.77;;;-1.40;99.90;;;;;;5052723;28;20250;-82
2021/01/12 00:56:48;;;;;;;10.37;7.40;;;-1.60;99.90;;;;;;5051455;28;20457;-82
2021/01/12 00:59:14;;;;;;;17.00;12.60;;;-1.40;99.90;;;;;;5051926;28;20434;-82
2021/01/12 01:01:40;;;;;;;18.33;12.57;;;-0.90;99.90;;;;;;5051868;28;20921;-82
2021/01/12 01:04:09;;;;;;;19.77;13.30;;;-1.20;99.90;;;;;;5051845;28;20263;-83
2021/01/12 01:06:35;;;;;;;17.23;13.10;;;-1.00;99.90;;;;;;5051873;28;20415;-83
2021/01/12 01:09:01;;;;;;;23.03;14.23;;;-0.90;99.90;;;;;;5051872;28;20453;-82
2021/01/12 01:11:27;;;;;;;11.97;9.97;;;-0.90;99.90;;;;;;5051722;28;20175;-82
2021/01/12 01:13:52;;;;;;;21.43;13.13;;;-1.20;99.90;;;;;;5051635;28;20461;-82
2021/01/12 01:16:18;;;;;;;16.83;12.10;;;-0.90;99.90;;;;;;5052599;28;20189;-83
2021/01/12 01:18:44;;;;;;;20.53;12.87;;;-1.10;99.90;;;;;;5051626;28;20509;-83
2021/01/12 01:21:13;;;;;;;19.57;11.47;;;-0.80;99.90;;;;;;5051700;28;20262;-82
2021/01/12 01:23:40;;;;;;;18.70;13.63;;;-1.30;99.90;;;;;;5051721;28;20203;-83
2021/01/12 01:26:05;;;;;;;17.43;12.77;;;-1.10;99.90;;;;;;5051728;28;20514;-83
2021/01/12 01:28:31;;;;;;;18.77;14.00;;;-1.10;99.90;;;;;;5053387;28;20465;-83
2021/01/12 01:30:56;;;;;;;19.17;12.10;;;-1.00;99.90;;;;;;5052374;28;20188;-83
2021/01/12 01:33:22;;;;;;;15.73;12.77;;;-1.20;99.90;;;;;;5051660;28;20187;-83
2021/01/12 01:35:48;;;;;;;15.73;10.17;;;-0.60;99.90;;;;;;5051722;28;20269;-83
2021/01/12 01:38:14;;;;;;;17.80;12.27;;;-1.10;99.90;;;;;;5051372;28;20574;-83
2021/01/12 01:40:40;;;;;;;16.23;12.30;;;-0.60;99.90;;;;;;5051638;28;20422;-82
2021/01/12 01:43:05;;;;;;;11.47;9.17;;;-1.00;99.90;;;;;;5051477;28;20464;-83
2021/01/12 01:45:31;;;;;;;17.97;11.70;;;-1.00;99.90;;;;;;5051489;28;20643;-83
2021/01/12 01:48:01;;;;;;;14.03;9.70;;;-0.90;99.90;;;;;;5051335;28;20176;-83
2021/01/12 01:50:26;;;;;;;13.53;10.07;;;-1.10;99.90;;;;;;5051435;28;20172;-83
2021/01/12 01:52:54;;;;;;;21.03;11.70;;;-1.00;99.90;;;;;;5051477;28;20414;-84
2021/01/12 01:55:20;;;;;;;17.77;10.17;;;-1.10;99.90;;;;;;5052468;28;20357;-83
2021/01/12 01:57:46;;;;;;;20.50;14.00;;;-1.00;99.90;;;;;;5051292;28;20425;-83
2021/01/12 02:00:16;;;;;;;18.23;13.17;;;-0.90;99.90;;;;;;5051339;28;20524;-83
2021/01/12 02:03:08;;;;;;;16.10;10.37;;;-0.90;99.90;;;;;;5051459;28;20514;-83
2021/01/12 02:05:48;;;;;;;15.10;11.10;;;-0.70;99.90;;;;;;5051502;28;20767;-83
2021/01/12 02:08:26;;;;;;;16.00;11.77;;;-0.90;99.90;;;;;;5056310;28;20414;-82
2021/01/12 02:10:55;;;;;;;13.90;10.67;;;-0.60;99.90;;;;;;5054914;28;20417;-84
2021/01/12 02:13:26;;;;;;;11.67;9.60;;;-0.50;99.90;;;;;;5054890;28;20419;-83
2021/01/12 02:15:57;;;;;;;18.87;11.10;;;-0.70;99.90;;;;;;5054731;28;20485;-83
2021/01/12 02:18:22;;;;;;;12.17;8.60;;;-0.90;99.90;;;;;;5054917;28;20557;-83
2021/01/12 02:20:49;;;;;;;17.13;11.40;;;-1.00;99.90;;;;;;5054402;28;20532;-82
2021/01/12 02:23:20;;;;;;;18.40;13.10;;;-0.50;99.90;;;;;;5054891;28;20512;-83
2021/01/12 02:25:50;;;;;;;17.00;10.37;;;-0.40;99.90;;;;;;5054484;28;20427;-83
2021/01/12 02:28:19;;;;;;;15.83;12.00;;;-0.80;99.90;;;;;;5055750;28;20410;-84
2021/01/12 02:30:46;;;;;;;13.43;9.47;;;-0.70;99.90;;;;;;5054684;28;20422;-83
2021/01/12 02:33:11;;;;;;;17.07;11.63;;;-0.50;99.90;;;;;;5054560;28;20428;-83
2021/01/12 02:35:40;;;;;;;12.50;9.23;;;-0.60;99.90;;;;;;5054310;28;20848;-83
2021/01/12 02:38:06;;;;;;;15.90;10.37;;;-0.50;99.90;;;;;;5053885;28;20176;-83
2021/01/12 02:40:32;;;;;;;15.27;9.90;;;-0.40;99.90;;;;;;5054214;28;20951;-83
2021/01/12 02:42:58;;;;;;;16.60;11.00;;;-0.30;99.90;;;;;;5055269;28;20506;-83
2021/01/12 02:45:24;;;;;;;12.47;7.63;;;-0.30;99.90;;;;;;5054037;28;20513;-83
2021/01/12 02:47:50;;;;;;;19.13;11.17;;;-0.20;99.90;;;;;;5054072;28;20423;-84
2021/01/12 02:50:16;;;;;;;17.73;9.50;;;-0.30;99.90;;;;;;5054043;28;20229;-83
2021/01/12 02:52:43;;;;;;;13.30;10.53;;;-0.10;99.90;;;;;;5054255;28;20176;-81
2021/01/12 02:55:13;;;;;;;12.37;9.07;;;-0.20;99.90;;;;;;5054182;28;20478;-83
2021/01/12 02:57:39;;;;;;;12.27;9.27;;;-0.40;99.90;;;;;;5053701;28;20422;-84
2021/01/12 03:00:15;;;;;;;10.40;8.30;;;-0.10;99.90;;;;;;5055129;28;20437;-84
2021/01/12 03:02:42;;;;;;;11.57;7.60;;;0.00;99.90;;;;;;5054078;28;20502;-84
2021/01/12 03:05:09;;;;;;;14.60;8.80;;;-0.20;99.90;;;;;;5053839;28;20429;-83
2021/01/12 03:07:35;;;;;;;10.80;7.50;;;0.20;99.90;;;;;;5053674;28;20497;-83
2021/01/12 03:10:02;;;;;;;11.47;9.03;;;-0.10;99.90;;;;;;5054057;28;20553;-83
2021/01/12 03:12:27;;;;;;;9.07;6.57;;;0.10;99.90;;;;;;5055074;28;20468;-83
2021/01/12 03:14:53;;;;;;;8.40;5.80;;;0.00;99.90;;;;;;5053557;28;20973;-83
2021/01/12 03:17:20;;;;;;;12.87;9.43;;;-0.20;99.90;;;;;;5052930;28;20223;-83
2021/01/12 03:19:46;;;;;;;10.33;6.70;;;-0.40;99.90;;;;;;5055270;28;20430;-83
2021/01/12 03:22:12;;;;;;;14.23;9.40;;;-0.30;99.90;;;;;;5053803;28;20466;-83
2021/01/12 03:24:38;;;;;;;11.93;7.73;;;-0.20;99.90;;;;;;5053764;28;20441;-83
2021/01/12 03:27:04;;;;;;;11.13;8.83;;;-0.30;99.90;;;;;;5053492;28;20179;-83
2021/01/12 03:29:30;;;;;;;12.70;8.20;;;-0.20;99.90;;;;;;5054738;28;20920;-82
2021/01/12 03:31:56;;;;;;;12.70;8.83;;;0.00;99.90;;;;;;5053341;28;20437;-84
2021/01/12 03:34:22;;;;;;;11.80;7.17;;;0.00;99.90;;;;;;5053476;28;20562;-84
2021/01/12 03:36:48;;;;;;;8.60;7.00;;;-0.30;99.90;;;;;;5053168;28;20275;-83
2021/01/12 03:39:13;;;;;;;12.77;9.07;;;-0.40;99.90;;;;;;5053217;28;20952;-82
2021/01/12 03:41:39;;;;;;;11.70;8.27;;;-0.10;99.90;;;;;;5053025;28;20267;-83
2021/01/12 03:44:05;;;;;;;13.50;9.17;;;-0.10;99.90;;;;;;5052903;28;20183;-83
2021/01/12 03:46:30;;;;;;;10.70;8.17;;;-0.60;99.90;;;;;;5052952;28;20183;-83
2021/01/12 03:48:56;;;;;;;15.20;9.70;;;-0.10;99.90;;;;;;5052956;28;20199;-82
2021/01/12 03:51:24;;;;;;;10.97;8.43;;;-0.40;99.90;;;;;;5052969;28;20184;-83
2021/01/12 03:53:50;;;;;;;14.50;9.30;;;-0.10;99.90;;;;;;5056177;28;20172;-83
2021/01/12 03:56:15;;;;;;;10.47;7.70;;;-0.10;99.90;;;;;;5053762;28;20435;-84
2021/01/12 03:58:41;;;;;;;9.93;7.73;;;-0.10;99.90;;;;;;5053112;28;20287;-83
2021/01/12 04:01:08;;;;;;;14.00;8.97;;;-0.40;99.90;;;;;;5053189;28;20199;-84
2021/01/12 04:03:34;;;;;;;8.87;6.07;;;-0.10;99.90;;;;;;5053566;28;20179;-83
2021/01/12 04:06:02;;;;;;;15.90;8.00;;;-0.30;99.90;;;;;;5054188;28;20459;-83
2021/01/12 04:08:27;;;;;;;12.47;8.17;;;0.20;99.90;;;;;;5053045;28;20510;-83
2021/01/12 04:10:53;;;;;;;11.33;8.70;;;0.20;99.90;;;;;;5053109;28;20454;-83
2021/01/12 04:13:19;;;;;;;11.97;7.87;;;-0.30;99.90;;;;;;5052983;28;20176;-83
2021/01/12 04:15:45;;;;;;;11.33;8.67;;;0.10;99.90;;;;;;5052972;28;20223;-86
2021/01/12 04:18:10;;;;;;;14.87;8.47;;;0.10;99.90;;;;;;5053377;28;20247;-84
2021/01/12 04:20:36;;;;;;;10.00;8.47;;;-0.40;99.90;;;;;;5053806;28;20195;-81
2021/01/12 04:23:02;;;;;;;10.47;7.60;;;0.10;99.90;;;;;;5052813;28;20553;-84
2021/01/12 04:25:27;;;;;;;9.10;7.20;;;0.00;99.90;;;;;;5052751;28;20270;-84
2021/01/12 04:27:53;;;;;;;10.47;7.50;;;0.20;99.90;;;;;;5052382;28;20249;-83
2021/01/12 04:30:19;;;;;;;9.37;7.50;;;0.10;99.90;;;;;;5052590;28;20179;-84
2021/01/12 04:32:46;;;;;;;11.80;8.37;;;0.30;99.90;;;;;;5052673;28;20275;-85
2021/01/12 04:35:12;;;;;;;9.20;6.77;;;-0.10;99.90;;;;;;5052524;28;20310;-83
2021/01/12 04:37:37;;;;;;;9.00;5.57;;;0.30;99.90;;;;;;5052782;28;20453;-83
2021/01/12 04:40:04;;;;;;;10.13;6.60;;;0.40;99.90;;;;;;5052700;28;20186;-83
2021/01/12 04:42:33;;;;;;;10.17;7.57;;;0.20;99.90;;;;;;5035657;28;20187;-83
2021/01/12 04:45:04;;;;;;;9.20;7.00;;;0.50;99.90;;;;;;5052317;28;20423;-83
2021/01/12 04:47:29;;;;;;;9.80;7.20;;;0.60;99.90;;;;;;5051560;28;20505;-83
2021/01/12 04:49:55;;;;;;;10.07;6.70;;;0.50;99.90;;;;;;5052437;28;20521;-83
2021/01/12 04:52:21;;;;;;;9.63;6.60;;;0.60;99.90;;;;;;5052490;28;20233;-83
2021/01/12 04:54:52;;;;;;;7.67;4.83;;;0.10;99.90;;;;;;5053256;28;20215;-81
2021/01/12 04:57:17;;;;;;;9.20;7.30;;;0.10;99.90;;;;;;5052439;28;20442;-84
2021/01/12 04:59:44;;;;;;;8.77;6.60;;;0.10;99.90;;;;;;5052368;28;20446;-83
2021/01/12 05:02:13;;;;;;;8.60;6.70;;;0.40;99.90;;;;;;5051909;28;20183;-84
2021/01/12 05:04:43;;;;;;;8.43;6.30;;;0.50;99.90;;;;;;5053228;28;20505;-84
2021/01/12 05:07:09;;;;;;;11.87;7.37;;;0.10;99.90;;;;;;5054074;28;20770;-84
2021/01/12 05:09:38;;;;;;;10.23;6.03;;;0.10;99.90;;;;;;5052287;28;20911;-84
2021/01/12 05:12:05;;;;;;;5.00;4.50;;;0.70;99.90;;;;;;5052008;28;20410;-85
2021/01/12 05:14:32;;;;;;;8.00;6.17;;;0.60;99.90;;;;;;5052143;28;20470;-84
2021/01/12 05:16:58;;;;;;;6.50;4.47;;;0.90;99.90;;;;;;5052366;28;20895;-84
2021/01/12 05:19:29;;;;;;;8.67;6.70;;;0.70;99.90;;;;;;5051714;28;20418;-84
2021/01/12 05:22:05;;;;;;;9.37;6.40;;;0.70;99.90;;;;;;5051789;28;20227;-84
2021/01/12 05:24:42;;;;;;;9.57;6.80;;;0.80;99.90;;;;;;5052351;28;20423;-82
2021/01/12 05:27:10;;;;;;;6.40;5.67;;;0.60;99.90;;;;;;5052270;28;20425;-85
2021/01/12 05:29:38;;;;;;;9.97;6.03;;;0.70;99.90;;;;;;5051860;28;20437;-84
2021/01/12 05:32:11;;;;;;;7.03;5.93;;;0.30;99.90;;;;;;5051788;28;20414;-84
2021/01/12 05:34:38;;;;;;;8.47;6.30;;;0.70;99.90;;;;;;5052132;28;20450;-84
2021/01/12 05:37:06;;;;;;;5.87;5.27;;;0.80;99.90;;;;;;5052250;28;20423;-83
2021/01/12 05:39:40;;;;;;;7.53;5.80;;;1.10;99.90;;;;;;5052384;28;20411;-83
2021/01/12 05:42:08;;;;;;;9.27;8.33;;;1.20;99.90;;;;;;5054469;28;20465;-84
2021/01/12 05:44:38;;;;;;;3.73;3.17;;;0.80;99.90;;;;;;5055871;28;20418;-82
2021/01/12 05:47:04;;;;;;;4.73;4.23;;;1.00;99.90;;;;;;5055814;28;20417;-83
2021/01/12 05:49:30;;;;;;;3.20;2.93;;;1.20;99.90;;;;;;5055496;28;20418;-84
2021/01/12 05:51:56;;;;;;;3.80;3.23;;;1.30;99.90;;;;;;5056055;28;20414;-83
2021/01/12 05:54:30;;;;;;;2.90;2.70;;;1.80;99.90;;;;;;5055743;28;20947;-85
2021/01/12 05:56:58;;;;;;;7.30;2.23;;;1.60;99.90;;;;;;5056423;28;20424;-82
2021/01/12 05:59:31;;;;;;;3.43;3.13;;;2.00;99.90;;;;;;5055753;28;20754;-83
2021/01/12 06:02:14;;;;;;;5.13;3.30;;;2.20;99.90;;;;;;5056021;28;20431;-82
2021/01/12 06:04:44;;;;;;;7.43;4.93;;;2.00;99.90;;;;;;5055799;28;20932;-77
2021/01/12 06:07:10;;;;;;;3.33;2.80;;;1.70;99.90;;;;;;5055475;28;20433;-84
2021/01/12 06:09:37;;;;;;;5.00;3.50;;;1.60;99.90;;;;;;5055993;28;20430;-85
2021/01/12 06:12:03;;;;;;;3.87;3.23;;;1.60;99.90;;;;;;5056883;28;20495;-84
2021/01/12 06:14:30;;;;;;;5.23;3.83;;;2.00;99.90;;;;;;5055449;28;20481;-84
2021/01/12 06:16:58;;;;;;;3.83;3.07;;;1.60;99.90;;;;;;5055542;28;20421;-83
2021/01/12 06:19:25;;;;;;;6.00;4.93;;;1.70;99.90;;;;;;5056147;28;20438;-84
2021/01/12 06:22:05;;;;;;;4.73;4.30;;;2.00;99.90;;;;;;5056987;28;20524;-84
2021/01/12 06:24:36;;;;;;;5.50;4.07;;;1.60;99.90;;;;;;5055197;28;20422;-84
2021/01/12 06:27:16;;;;;;;5.27;4.80;;;1.80;99.90;;;;;;5055798;28;20427;-83
2021/01/12 06:29:49;;;;;;;4.43;4.00;;;1.80;99.90;;;;;;5055319;28;20951;-84
2021/01/12 06:32:16;;;;;;;3.87;3.07;;;1.80;99.90;;;;;;5055230;28;20918;-83
2021/01/12 06:34:42;;;;;;;5.13;4.10;;;1.80;99.90;;;;;;5055099;28;20817;-85
2021/01/12 06:37:11;;;;;;;2.97;2.70;;;1.40;99.90;;;;;;5055338;28;20419;-83
2021/01/12 06:39:44;;;;;;;5.50;4.10;;;1.80;99.90;;;;;;5055016;28;20414;-85
2021/01/12 06:42:12;;;;;;;7.70;4.00;;;1.80;99.90;;;;;;5054942;28;20913;-85
2021/01/12 06:44:38;;;;;;;6.30;4.40;;;1.70;99.90;;;;;;5054469;28;20445;-84
2021/01/12 06:47:06;;;;;;;4.70;3.87;;;1.70;99.90;;;;;;5054510;28;20437;-84
2021/01/12 06:49:32;;;;;;;3.60;3.30;;;1.20;99.90;;;;;;5056269;28;20936;-84
2021/01/12 06:52:09;;;;;;;5.30;4.40;;;1.70;99.90;;;;;;5054004;28;20417;-82
2021/01/12 06:54:41;;;;;;;9.67;5.57;;;1.60;99.90;;;;;;5053823;28;20473;-84
2021/01/12 06:57:23;;;;;;;5.07;4.57;;;1.50;99.90;;;;;;5055014;28;20951;-86
2021/01/12 06:59:55;;;;;;;9.20;5.20;;;1.60;99.90;;;;;;5054084;28;20434;-83
2021/01/12 07:02:29;;;;;;;6.57;5.03;;;1.50;99.90;;;;;;5054453;28;20476;-82
2021/01/12 07:05:14;;;;;;;8.20;5.47;;;1.10;99.90;;;;;;5054476;28;20437;-82
2021/01/12 07:07:51;;;;;;;7.27;4.50;;;1.30;99.90;;;;;;5055059;28;20513;-81
2021/01/12 07:10:22;;;;;;;10.80;6.57;;;1.50;99.90;;;;;;5053979;28;20938;-84
2021/01/12 07:12:48;;;;;;;7.80;5.90;;;0.80;99.90;;;;;;5053902;28;20458;-83
2021/01/12 07:15:19;;;;;;;6.57;4.57;;;0.80;99.90;;;;;;5054091;28;20474;-83
2021/01/12 07:17:46;;;;;;;8.13;6.30;;;1.20;99.90;;;;;;5053799;28;20918;-84
2021/01/12 07:20:17;;;;;;;6.87;6.17;;;0.90;99.90;;;;;;5053938;28;20422;-84
2021/01/12 07:22:56;;;;;;;8.00;5.90;;;0.70;99.90;;;;;;5053924;28;20481;-84
2021/01/12 07:25:36;;;;;;;6.70;5.93;;;0.70;99.90;;;;;;5053612;28;20414;-83
2021/01/12 07:28:14;;;;;;;6.43;4.90;;;1.20;99.90;;;;;;5053876;28;20419;-79
2021/01/12 07:30:43;;;;;;;8.23;5.63;;;0.80;99.90;;;;;;5054810;28;20422;-83
2021/01/12 07:33:17;;;;;;;7.93;5.80;;;1.00;99.90;;;;;;5066429;28;20425;-83
2021/01/12 07:35:44;;;;;;;5.37;4.47;;;1.30;99.90;;;;;;5089750;28;20556;-83
2021/01/12 07:38:16;;;;;;;6.20;5.53;;;1.00;99.90;;;;;;5073843;28;20420;-84
2021/01/12 07:40:41;;;;;;;5.60;4.53;;;1.40;99.90;;;;;;5072884;28;20429;-83
2021/01/12 07:43:14;;;;;;;7.00;5.27;;;1.10;99.90;;;;;;5063820;28;20430;-82
2021/01/12 07:45:40;;;;;;;7.30;5.40;;;1.50;99.90;;;;;;5057241;28;20207;-82
2021/01/12 07:48:06;;;;;;;7.20;5.23;;;1.60;99.90;;;;;;5053654;28;20932;-83
2021/01/12 07:50:32;;;;;;;5.80;4.77;;;1.50;99.90;;;;;;5067823;28;20276;-83
2021/01/12 07:52:58;;;;;;;7.73;3.30;;;1.60;99.90;;;;;;5071946;28;20499;-83
2021/01/12 07:55:25;;;;;;;6.17;4.77;;;1.40;99.90;;;;;;5073339;28;20222;-82
2021/01/12 07:57:51;;;;;;;4.60;3.93;;;1.80;99.90;;;;;;5072651;28;20414;-83
2021/01/12 08:00:18;;;;;;;4.20;2.93;;;1.50;99.90;;;;;;5072055;28;20429;-83
2021/01/12 08:02:51;;;;;;;5.60;3.70;;;1.80;99.90;;;;;;5072338;28;20456;-82
2021/01/12 08:05:19;;;;;;;3.97;2.83;;;1.80;99.90;;;;;;5073103;28;20413;-83
2021/01/12 08:07:45;;;;;;;8.17;4.57;;;1.80;99.90;;;;;;5072887;28;20424;-81
2021/01/12 08:10:11;;;;;;;7.00;4.10;;;1.80;99.90;;;;;;5070458;28;20797;-83
2021/01/12 08:12:36;;;;;;;2.57;1.90;;;1.90;99.90;;;;;;5071428;28;20577;-83
2021/01/12 08:15:08;;;;;;;4.10;3.33;;;2.00;99.90;;;;;;5071297;28;20461;-83
2021/01/12 08:17:35;;;;;;;3.00;2.70;;;2.10;99.90;;;;;;5071807;28;20262;-84
2021/01/12 08:20:04;;;;;;;1.97;1.47;;;1.70;99.90;;;;;;5071736;28;20449;-82
2021/01/12 08:22:30;;;;;;;3.20;2.90;;;2.20;99.90;;;;;;5071552;28;20472;-83
2021/01/12 08:25:06;;;;;;;2.47;2.03;;;2.00;99.90;;;;;;5068666;28;20426;-83
2021/01/12 08:27:32;;;;;;;3.83;2.87;;;2.40;99.90;;;;;;5051520;28;20174;-83
2021/01/12 08:30:08;;;;;;;7.53;6.83;;;1.90;99.90;;;;;;5052143;28;20530;-81
2021/01/12 08:32:37;;;;;;;4.80;3.30;;;2.40;99.90;;;;;;5053025;28;21063;-83
2021/01/12 08:35:08;;;;;;;2.90;2.47;;;2.60;99.90;;;;;;5052233;28;20470;-83
2021/01/12 08:37:38;;;;;;;2.23;2.03;;;2.70;99.90;;;;;;5052119;28;20502;-83
2021/01/12 08:40:07;;;;;;;2.50;2.30;;;2.60;99.90;;;;;;5052634;28;20410;-83
2021/01/12 08:42:33;;;;;;;1.50;1.40;;;2.80;99.90;;;;;;5051449;28;20452;-83
2021/01/12 08:45:00;;;;;;;1.00;1.00;;;2.30;99.90;;;;;;5051139;28;20426;-82
2021/01/12 08:47:26;;;;;;;0.70;0.70;;;2.40;99.90;;;;;;5055366;28;20439;-83
2021/01/12 08:50:01;;;;;;;2.30;0.73;;;3.00;99.90;;;;;;5051453;28;20422;-83
2021/01/12 08:52:27;;;;;;;1.37;0.93;;;2.70;99.90;;;;;;5050664;28;20572;-82
2021/01/12 08:54:53;;;;;;;2.07;1.97;;;2.40;99.90;;;;;;5051175;28;20500;-83
2021/01/12 08:57:18;;;;;;;0.40;0.40;;;2.50;99.90;;;;;;5051305;28;20497;-82
2021/01/12 08:59:44;;;;;;;0.60;0.53;;;2.40;99.90;;;;;;5051118;28;20191;-80
2021/01/12 09:02:18;;;;;;;3.20;0.70;;;2.50;99.90;;;;;;5050956;28;20283;-82
2021/01/12 09:04:43;;;;;;;4.53;1.00;;;2.80;99.90;;;;;;5050905;28;20202;-84
2021/01/12 09:07:09;;;;;;;0.60;0.60;;;2.50;99.90;;;;;;5050916;28;20422;-83
2021/01/12 09:09:35;;;;;;;3.13;0.90;;;2.50;99.90;;;;;;5051151;28;20211;-84
2021/01/12 09:12:03;;;;;;;0.60;0.60;;;2.80;99.90;;;;;;5051023;28;20186;-83
2021/01/12 09:14:31;;;;;;;0.73;0.60;;;2.70;99.90;;;;;;5050793;28;20547;-84
2021/01/12 09:16:58;;;;;;;1.33;1.00;;;2.80;99.90;;;;;;5053099;28;20429;-84
2021/01/12 09:19:32;;;;;;;0.50;0.40;;;2.70;99.90;;;;;;5055284;28;20430;-84
2021/01/12 09:22:10;;;;;;;0.53;0.53;;;2.70;99.90;;;;;;5058197;28;20476;-84
2021/01/12 09:24:38;;;;;;;1.20;1.10;;;2.30;99.90;;;;;;5056393;28;20426;-83
2021/01/12 09:27:04;;;;;;;1.17;0.60;;;2.30;99.90;;;;;;5055243;28;20432;-83
2021/01/12 09:29:37;;;;;;;0.90;0.77;;;2.70;99.90;;;;;;5056575;28;20438;-83
2021/01/12 09:32:03;;;;;;;1.33;1.13;;;2.30;99.90;;;;;;5055514;28;20457;-83
2021/01/12 09:34:29;;;;;;;0.70;0.70;;;2.50;99.90;;;;;;5055265;28;20496;-82
2021/01/12 09:36:54;;;;;;;3.20;2.00;;;2.50;99.90;;;;;;5054809;28;20372;-83
2021/01/12 09:39:20;;;;;;;1.83;0.97;;;2.20;99.90;;;;;;5057623;28;20566;-77
2021/01/12 09:41:50;;;;;;;1.07;0.93;;;2.40;99.90;;;;;;5057336;28;20184;-84
2021/01/12 09:44:15;;;;;;;4.27;2.50;;;2.40;99.90;;;;;;5066610;28;20195;-83
2021/01/12 09:46:41;;;;;;;0.43;0.43;;;2.40;99.90;;;;;;5054921;28;20414;-82
2021/01/12 09:49:06;;;;;;;0.83;0.83;;;1.90;99.90;;;;;;5054800;28;20179;-83
2021/01/12 09:51:32;;;;;;;2.10;1.17;;;2.30;99.90;;;;;;5055162;28;20631;-83
2021/01/12 09:53:58;;;;;;;0.53;0.53;;;1.70;99.90;;;;;;5054813;28;20176;-83
2021/01/12 09:56:23;;;;;;;1.07;0.90;;;1.60;99.90;;;;;;5055432;28;20184;-84
2021/01/12 09:58:50;;;;;;;2.10;1.70;;;2.00;99.90;;;;;;5056084;28;20176;-92
2021/01/12 10:01:18;;;;;;;1.10;1.00;;;1.60;99.90;;;;;;5054852;28;20180;-83
2021/01/12 10:03:44;;;;;;;1.77;1.60;;;1.50;99.90;;;;;;5054690;28;20418;-84
2021/01/12 10:06:23;;;;;;;1.03;0.60;;;1.80;99.90;;;;;;5054917;28;20422;-84
2021/01/12 10:08:49;;;;;;;1.30;1.27;;;2.00;99.90;;;;;;5054412;28;20418;-83
2021/01/12 10:11:16;;;;;;;2.50;2.30;;;1.90;99.90;;;;;;5054685;28;20419;-84
2021/01/12 10:13:46;;;;;;;2.43;2.30;;;2.10;99.90;;;;;;5054755;28;20171;-83
2021/01/12 10:16:28;;;;;;;1.80;1.60;;;2.00;99.90;;;;;;5055859;28;20474;-84
2021/01/12 10:18:53;;;;;;;0.87;0.50;;;1.90;99.90;;;;;;5051878;28;20415;-83
2021/01/12 10:21:20;;;;;;;2.87;2.30;;;1.90;99.90;;;;;;5054911;28;20462;-82
2021/01/12 10:23:46;;;;;;;0.70;0.70;;;2.10;99.90;;;;;;5056285;28;20194;-83
2021/01/12 10:26:15;;;;;;;0.77;0.77;;;1.50;99.90;;;;;;5072528;28;20416;-85
2021/01/12 10:28:41;;;;;;;1.40;1.03;;;2.00;99.90;;;;;;5074142;28;20459;-84
2021/01/12 10:31:10;;;;;;;0.90;0.90;;;1.60;99.90;;;;;;5074340;28;20941;-83
2021/01/12 10:33:36;;;;;;;2.00;0.90;;;2.20;99.90;;;;;;5074609;28;20643;-84
2021/01/12 10:36:02;;;;;;;0.73;0.50;;;1.70;99.90;;;;;;5073982;28;20468;-84
2021/01/12 10:38:29;;;;;;;0.30;0.30;;;2.10;99.90;;;;;;5073866;28;20523;-82
2021/01/12 10:40:54;;;;;;;0.90;0.60;;;1.70;99.90;;;;;;5073720;28;20179;-85
2021/01/12 10:43:20;;;;;;;1.50;0.57;;;1.70;99.90;;;;;;5074033;28;20417;-83
2021/01/12 10:45:46;;;;;;;0.30;0.30;;;2.00;99.90;;;;;;5075212;28;20175;-85
2021/01/12 10:48:11;;;;;;;0.60;0.60;;;2.10;99.90;;;;;;5074553;28;20171;-84
2021/01/12 10:50:37;;;;;;;1.33;0.40;;;1.80;99.90;;;;;;5075571;28;20186;-83
2021/01/12 10:53:02;;;;;;;0.50;0.47;;;1.70;99.90;;;;;;5073773;28;20583;-83
2021/01/12 10:55:28;;;;;;;0.90;0.73;;;2.20;99.90;;;;;;5073711;28;20238;-81
2021/01/12 10:57:53;;;;;;;0.40;0.40;;;2.10;99.90;;;;;;5075382;28;20527;-88
2021/01/12 11:00:20;;;;;;;1.00;1.00;;;2.20;99.90;;;;;;5073976;28;20201;-83
2021/01/12 11:02:45;;;;;;;0.90;0.40;;;2.10;99.90;;;;;;5075093;28;20179;-84
2021/01/12 11:05:11;;;;;;;2.80;1.00;;;1.80;99.90;;;;;;5073760;28;20862;-85
2021/01/12 11:07:40;;;;;;;0.57;0.57;;;2.30;99.90;;;;;;5074466;28;20237;-84
2021/01/12 11:10:07;;;;;;;0.40;0.27;;;1.70;99.90;;;;;;5074191;28;20580;-84
2021/01/12 11:12:33;;;;;;;0.30;0.30;;;2.10;99.90;;;;;;5074196;28;20449;-82
2021/01/12 11:14:59;;;;;;;1.30;1.30;;;2.20;99.90;;;;;;5073578;28;20995;-84
2021/01/12 11:17:25;;;;;;;0.60;0.60;;;2.10;99.90;;;;;;5074985;28;20179;-84
2021/01/12 11:19:50;;;;;;;1.10;1.10;;;2.20;99.90;;;;;;5073421;28;20182;-85
2021/01/12 11:22:26;;;;;;;0.57;0.57;;;2.20;99.90;;;;;;5073270;28;20986;-85
2021/01/12 11:24:55;;;;;;;0.70;0.70;;;2.00;99.90;;;;;;5068440;28;20178;-86
2021/01/12 11:27:21;;;;;;;0.70;0.70;;;1.90;99.90;;;;;;5053319;28;20470;-84
2021/01/12 11:29:46;;;;;;;1.13;0.80;;;2.30;99.90;;;;;;5053786;28;20937;-85
2021/01/12 11:32:12;;;;;;;0.70;0.70;;;1.90;99.90;;;;;;5052912;28;20168;-84
2021/01/12 11:34:38;;;;;;;2.70;2.50;;;2.40;99.90;;;;;;5054368;28;20203;-85
2021/01/12 11:37:04;;;;;;;2.17;2.00;;;1.90;99.90;;;;;;5054517;28;20187;-84
2021/01/12 11:39:30;;;;;;;2.57;2.33;;;1.90;99.90;;;;;;5051815;28;20414;-82
2021/01/12 11:41:56;;;;;;;2.90;2.20;;;2.10;99.90;;;;;;5053653;28;20266;-86
2021/01/12 11:44:23;;;;;;;1.87;1.53;;;2.00;99.90;;;;;;5052738;28;20831;-83
2021/01/12 11:46:49;;;;;;;2.97;2.27;;;2.50;99.90;;;;;;5053264;28;20211;-84
2021/01/12 11:49:16;;;;;;;4.37;2.33;;;2.00;99.90;;;;;;5053224;28;20469;-84
2021/01/12 11:51:47;;;;;;;1.57;1.50;;;2.10;99.90;;;;;;5055589;28;20415;-85
2021/01/12 11:54:14;;;;;;;1.87;1.13;;;2.20;99.90;;;;;;5052853;28;20484;-84
2021/01/12 11:56:40;;;;;;;4.43;2.70;;;2.00;99.90;;;;;;5052778;28;20423;-84
2021/01/12 11:59:06;;;;;;;4.23;3.17;;;2.30;99.90;;;;;;5052920;28;20505;-84
2021/01/12 12:01:42;;;;;;;15.63;10.10;;;2.20;99.90;;;;;;5052017;28;20855;-84
2021/01/12 12:04:08;;;;;;;1.40;1.20;;;2.50;99.90;;;;;;5052323;28;20925;-84
2021/01/12 12:06:34;;;;;;;0.83;0.80;;;2.10;99.90;;;;;;5052188;28;20472;-83
2021/01/12 12:08:59;;;;;;;0.70;0.70;;;2.30;99.90;;;;;;5052024;28;20191;-82
2021/01/12 12:11:26;;;;;;;0.63;0.57;;;2.20;99.90;;;;;;5051947;28;20175;-84
2021/01/12 12:13:52;;;;;;;0.93;0.93;;;2.60;99.90;;;;;;5053163;28;20570;-84
2021/01/12 12:16:18;;;;;;;0.60;0.60;;;2.40;99.90;;;;;;5054125;28;20482;-85
2021/01/12 12:18:44;;;;;;;0.70;0.57;;;2.60;99.90;;;;;;5054042;28;20233;-84
2021/01/12 12:21:14;;;;;;;0.60;0.50;;;2.80;99.90;;;;;;5051804;28;20809;-84
2021/01/12 12:23:40;;;;;;;0.43;0.27;;;2.30;99.90;;;;;;5052289;28;20480;-82
2021/01/12 12:26:14;;;;;;;0.43;0.40;;;2.20;99.90;;;;;;5051994;28;20431;-84
2021/01/12 12:28:44;;;;;;;0.60;0.50;;;2.20;99.90;;;;;;5052513;28;20429;-85
2021/01/12 12:31:10;;;;;;;0.30;0.20;;;2.40;99.90;;;;;;5049226;28;20429;-83
2021/01/12 12:33:36;;;;;;;0.53;0.53;;;2.30;99.90;;;;;;5052928;28;20427;-84
2021/01/12 12:36:10;;;;;;;1.87;0.80;;;2.50;99.90;;;;;;5053558;28;20484;-78
2021/01/12 12:38:38;;;;;;;0.60;0.30;;;2.70;99.90;;;;;;5051936;28;20735;-87
2021/01/12 12:41:22;;;;;;;0.43;0.33;;;2.30;99.90;;;;;;5052509;28;20423;-85
2021/01/12 12:43:48;;;;;;;0.40;0.40;;;2.30;99.90;;;;;;5052834;28;20488;-85
2021/01/12 12:46:15;;;;;;;0.60;0.50;;;2.20;99.90;;;;;;5052962;28;20418;-86
2021/01/12 12:48:41;;;;;;;0.77;0.40;;;2.40;99.90;;;;;;5052717;28;20183;-84
2021/01/12 12:51:10;;;;;;;0.27;0.20;;;2.30;99.90;;;;;;5052964;28;20423;-84